Time;durP1;ratioP1;P1;durP2;ratioP2;P2;SDS_P1;SDS_P2;PMS_P1;PMS_P2;Temp;Humidity;BMP_temperature;BMP_pressure;BME280_temperature;BME280_humidity;BME280_pressure;Samples;Min_cycle;Max_cycle;Signal;HPM_P1;HPM_P2
2022/04/28 00:00:13;;;;;;;;;32.25;29.75;;;;;16.53;44.28;101853.66;2084931;28;47703;-61
2022/04/28 00:01:14;;;;;;;;;30.80;29.80;;;;;16.52;43.97;101854.59;2085904;28;47605;-60
2022/04/28 00:02:15;;;;;;;;;36.50;29.75;;;;;16.50;44.02;101854.59;2085410;28;47616;-60
2022/04/28 00:03:16;;;;;;;;;31.25;29.50;;;;;16.48;44.45;101849.31;2083238;28;47550;-61
2022/04/28 00:04:16;;;;;;;;;33.50;30.25;;;;;16.47;44.10;101855.59;2086214;28;47232;-61
2022/04/28 00:05:17;;;;;;;;;33.00;30.75;;;;;16.45;44.28;101856.56;2085922;28;47942;-62
2022/04/28 00:06:18;;;;;;;;;14.00;12.25;;;;;16.42;44.62;101852.16;2085596;28;47472;-61
2022/04/28 00:07:19;;;;;;;;;32.00;30.25;;;;;16.41;44.27;101850.41;2061548;28;47323;-61
2022/04/28 00:08:20;;;;;;;;;31.25;29.25;;;;;16.39;44.54;101854.94;2070673;28;47396;-61
2022/04/28 00:09:21;;;;;;;;;34.60;31.00;;;;;16.37;44.41;101847.84;2087571;28;47901;-61
2022/04/28 00:10:22;;;;;;;;;32.00;29.00;;;;;16.36;44.43;101849.63;2086000;28;47854;-61
2022/04/28 00:11:24;;;;;;;;;32.20;29.60;;;;;16.34;44.22;101859.53;2095607;28;47865;-61
2022/04/28 00:12:25;;;;;;;;;30.80;29.80;;;;;16.31;44.42;101850.69;2091628;28;48161;-61
2022/04/28 00:13:27;;;;;;;;;38.20;32.20;;;;;16.30;44.39;101854.31;2091982;28;47633;-61
2022/04/28 00:14:30;;;;;;;;;32.20;29.40;;;;;16.29;44.09;101860.59;2080721;28;47772;-61
2022/04/28 00:15:31;;;;;;;;;32.40;29.20;;;;;16.28;44.17;101846.31;2086504;28;48121;-59
2022/04/28 00:16:31;;;;;;;;;34.20;30.00;;;;;16.25;44.53;101842.81;2083145;28;47864;-60
2022/04/28 00:17:32;;;;;;;;;30.50;29.50;;;;;16.26;44.14;101852.59;2081477;28;47992;-60
2022/04/28 00:18:33;;;;;;;;;30.80;27.80;;;;;16.23;44.07;101847.34;2086734;28;47139;-61
2022/04/28 00:19:34;;;;;;;;;34.25;31.00;;;;;16.22;44.55;101846.47;2081691;28;47511;-64
2022/04/28 00:20:35;;;;;;;;;35.75;33.25;;;;;16.20;44.54;101851.00;2083840;28;47431;-61
2022/04/28 00:21:36;;;;;;;;;29.60;28.80;;;;;16.19;44.66;101849.22;2085172;28;47564;-61
2022/04/28 00:22:36;;;;;;;;;30.50;29.25;;;;;16.16;43.95;101849.31;2086661;28;48077;-60
2022/04/28 00:23:37;;;;;;;;;32.25;30.00;;;;;16.17;44.76;101853.75;2091585;28;47763;-61
2022/04/28 00:24:38;;;;;;;;;35.50;30.75;;;;;16.15;44.66;101851.13;2089627;28;45901;-60
2022/04/28 00:25:38;;;;;;;;;29.75;29.00;;;;;16.14;44.05;101849.38;2091917;28;47323;-61
2022/04/28 00:26:39;;;;;;;;;36.25;32.25;;;;;16.14;44.41;101853.84;2086325;28;48033;-61
2022/04/28 00:27:40;;;;;;;;;34.25;29.75;;;;;16.13;44.13;101849.38;2081695;28;46125;-61
2022/04/28 00:28:40;;;;;;;;;21.75;21.50;;;;;16.11;44.76;101852.09;2084419;28;47716;-61
2022/04/28 00:29:41;;;;;;;;;37.25;32.25;;;;;16.10;44.31;101853.03;2084182;28;47839;-60
2022/04/28 00:30:42;;;;;;;;;33.75;31.75;;;;;16.09;44.76;101853.94;2086124;28;46670;-61
2022/04/28 00:31:42;;;;;;;;;33.75;32.00;;;;;16.08;44.30;101852.19;2090149;28;47029;-60
2022/04/28 00:32:43;;;;;;;;;33.50;31.50;;;;;16.06;44.41;101843.31;2090409;28;48034;-60
2022/04/28 00:33:45;;;;;;;;;34.75;31.75;;;;;16.06;44.78;101850.47;2090827;28;46060;-60
2022/04/28 00:34:46;;;;;;;;;36.60;31.00;;;;;16.06;44.48;101847.81;2101720;27;48613;-61
2022/04/28 00:35:47;;;;;;;;;30.80;28.80;;;;;16.05;44.29;101838.00;2097721;27;47626;-60
2022/04/28 00:36:48;;;;;;;;;38.25;32.75;;;;;16.04;44.40;101847.84;2073762;28;47556;-60
2022/04/28 00:37:48;;;;;;;;;34.25;31.25;;;;;16.03;44.49;101845.22;2069130;28;47314;-61
2022/04/28 00:38:49;;;;;;;;;35.75;31.00;;;;;16.00;44.84;101843.47;2084613;28;48186;-61
2022/04/28 00:39:51;;;;;;;;;32.50;29.25;;;;;16.00;44.40;101838.13;2076270;28;47520;-63
2022/04/28 00:40:52;;;;;;;;;29.80;27.00;;;;;15.98;44.64;101839.06;2070169;28;45944;-61
2022/04/28 00:41:52;;;;;;;;;34.75;30.50;;;;;15.97;44.62;101843.56;2083398;28;48125;-61
2022/04/28 00:43:18;;;;;;;;;37.25;32.75;;;;;15.95;44.36;101845.41;2084425;28;48187;-61
2022/04/28 00:44:13;;;;;;;;;32.60;31.40;;;;;15.95;44.65;101844.53;2085561;28;47756;-61
2022/04/28 00:45:14;;;;;;;;;36.25;33.00;;;;;15.94;44.49;101840.97;2079545;28;47704;-60
2022/04/28 00:46:15;;;;;;;;;32.00;28.75;;;;;15.94;44.50;101845.44;2083377;28;47833;-61
2022/04/28 00:47:15;;;;;;;;;31.50;30.00;;;;;15.92;44.59;101848.16;2086944;28;48011;-61
2022/04/28 00:51:01;;;;;;;;;39.20;32.00;;;;;15.88;44.99;101847.38;2084908;28;48021;-61
2022/04/28 00:52:02;;;;;;;;;32.80;30.80;;;;;15.89;45.01;101840.22;2101995;28;45964;-61
2022/04/28 00:53:07;;;;;;;;;32.80;31.00;;;;;15.87;45.17;101850.94;2097420;28;48105;-61
2022/04/28 00:54:08;;;;;;;;;32.00;31.00;;;;;15.86;44.79;101841.16;2083672;28;47772;-60
2022/04/28 00:55:09;;;;;;;;;36.20;31.80;;;;;15.85;44.86;101841.19;2086437;28;47980;-60
2022/04/28 00:56:12;;;;;;;;;32.25;30.25;;;;;15.84;44.64;101839.44;2083029;28;47865;-61
2022/04/28 00:57:14;;;;;;;;;34.80;30.40;;;;;15.85;44.93;101838.53;2080194;28;47886;-61
2022/04/28 00:58:15;;;;;;;;;33.40;31.00;;;;;15.82;44.90;101843.97;2085400;28;47476;-60
2022/04/28 00:59:17;;;;;;;;;36.75;29.75;;;;;15.80;45.14;101840.44;2089938;28;47660;-60
2022/04/28 01:00:18;;;;;;;;;35.80;31.60;;;;;15.80;45.06;101844.00;2065522;28;48105;-61
2022/04/28 01:01:18;;;;;;;;;32.25;30.25;;;;;15.77;45.05;101843.22;2079201;28;46186;-61
2022/04/28 01:02:20;;;;;;;;;37.25;32.50;;;;;15.76;44.89;101838.78;2100594;28;47661;-60
2022/04/28 01:03:21;;;;;;;;;33.20;30.80;;;;;15.76;45.15;101841.44;2081209;28;47703;-60
2022/04/28 01:04:21;;;;;;;;;32.50;29.50;;;;;15.74;44.89;101841.47;2087188;28;47327;-61
2022/04/28 01:05:22;;;;;;;;;35.25;31.75;;;;;15.73;44.87;101839.69;2088807;28;47956;-61
2022/04/28 01:06:23;;;;;;;;;29.00;27.50;;;;;15.72;44.99;101843.31;2083242;28;47559;-62
2022/04/28 01:07:24;;;;;;;;;35.75;31.50;;;;;15.70;44.87;101839.78;2088711;28;47829;-60
2022/04/28 01:08:26;;;;;;;;;37.20;32.40;;;;;15.71;45.39;101843.34;2084739;28;48053;-61
2022/04/28 01:09:27;;;;;;;;;28.60;28.00;;;;;15.70;45.26;101838.91;2088363;28;48280;-66
2022/04/28 01:10:28;;;;;;;;;38.40;32.00;;;;;15.70;44.83;101841.59;2087211;28;47645;-63
2022/04/28 01:11:31;;;;;;;;;39.75;33.25;;;;;15.70;44.91;101842.47;2088784;28;47514;-65
2022/04/28 01:12:32;;;;;;;;;36.20;32.20;;;;;15.69;45.08;101843.38;2082872;28;47788;-67
2022/04/28 01:13:34;;;;;;;;;31.40;28.60;;;;;15.68;45.06;101844.31;2081523;28;47223;-64
2022/04/28 01:14:34;;;;;;;;;33.80;31.80;;;;;15.68;45.51;101840.75;2085505;28;47587;-64
2022/04/28 01:15:45;;;;;;;;;32.00;31.00;;;;;15.66;45.17;101840.78;2085444;28;47568;-65
2022/04/28 01:16:46;;;;;;;;;33.60;31.80;;;;;15.68;44.93;101840.75;2083797;28;47942;-66
2022/04/28 01:17:47;;;;;;;;;34.75;31.50;;;;;15.67;45.18;101837.19;2081105;28;47741;-64
2022/04/28 01:18:47;;;;;;;;;41.25;34.75;;;;;15.67;45.51;101847.03;2086571;28;47731;-60
2022/04/28 01:19:48;;;;;;;;;30.50;29.50;;;;;15.66;45.50;101837.25;2083195;28;47740;-59
2022/04/28 01:20:49;;;;;;;;;31.75;30.75;;;;;15.66;45.59;101842.59;2080935;28;47683;-60
2022/04/28 01:21:51;;;;;;;;;33.40;31.80;;;;;15.65;45.41;101841.72;2087877;28;47280;-61
2022/04/28 01:22:51;;;;;;;;;30.40;28.80;;;;;15.63;44.98;101834.66;2088914;28;47284;-61
2022/04/28 01:23:55;;;;;;;;;34.00;31.50;;;;;15.61;45.11;101842.69;2090025;28;47668;-61
2022/04/28 01:24:56;;;;;;;;;32.00;30.20;;;;;15.60;45.53;101841.81;2083081;28;48162;-62
2022/04/28 01:25:57;;;;;;;;;35.00;31.75;;;;;15.58;45.10;101838.25;2081256;28;47292;-61
2022/04/28 01:27:00;;;;;;;;;43.25;36.75;;;;;15.57;45.32;101843.66;2085228;28;48013;-62
2022/04/28 01:28:01;;;;;;;;;36.60;32.40;;;;;15.56;45.48;101840.09;2086151;28;48053;-61
2022/04/28 01:29:02;;;;;;;;;38.40;31.60;;;;;15.55;45.67;101846.38;2088128;28;46114;-62
2022/04/28 01:30:05;;;;;;;;;35.50;32.50;;;;;15.54;45.55;101839.25;2078596;28;46716;-61
2022/04/28 01:31:05;;;;;;;;;35.20;31.80;;;;;15.55;45.74;101842.81;2089594;28;47227;-62
2022/04/28 01:32:07;;;;;;;;;32.75;31.00;;;;;15.54;45.40;101843.72;2088798;27;46842;-61
2022/04/28 01:33:07;;;;;;;;;33.60;31.20;;;;;15.55;45.67;101840.13;2093423;28;47191;-60
2022/04/28 01:34:08;;;;;;;;;33.25;31.25;;;;;15.53;45.54;101842.84;2089001;28;48262;-61
2022/04/28 01:35:09;;;;;;;;;31.50;29.75;;;;;15.54;45.41;101843.72;2087983;28;47638;-62
2022/04/28 01:36:10;;;;;;;;;31.40;30.20;;;;;15.53;45.57;101841.97;2085958;28;47400;-63
2022/04/28 01:37:11;;;;;;;;;34.80;32.00;;;;;15.52;45.37;101837.53;2088356;28;47505;-62
2022/04/28 01:38:12;;;;;;;;;34.25;31.25;;;;;15.51;45.34;101836.66;2087143;28;47127;-61
2022/04/28 01:39:12;;;;;;;;;37.50;32.00;;;;;15.51;45.21;101838.47;2089975;28;47517;-62
2022/04/28 01:40:13;;;;;;;;;33.50;30.50;;;;;15.50;45.77;101836.69;2089181;28;47931;-61
2022/04/28 01:41:14;;;;;;;;;36.50;32.75;;;;;15.49;45.75;101837.59;2088787;28;47830;-61
2022/04/28 01:42:15;;;;;;;;;30.75;29.75;;;;;15.47;45.87;101839.44;2088033;28;47779;-60
2022/04/28 01:43:15;;;;;;;;;39.25;32.00;;;;;15.46;45.82;101837.69;2080364;28;47076;-60
2022/04/28 01:44:16;;;;;;;;;32.25;30.25;;;;;15.45;45.39;101841.28;2091239;28;48157;-60
2022/04/28 01:45:17;;;;;;;;;36.75;31.50;;;;;15.44;45.63;101837.72;2082303;28;47802;-61
2022/04/28 01:46:18;;;;;;;;;33.25;29.25;;;;;15.43;45.39;101835.97;2084254;28;48384;-61
2022/04/28 01:47:19;;;;;;;;;34.00;31.00;;;;;15.42;46.00;101831.53;2086762;28;47918;-61
2022/04/28 01:48:20;;;;;;;;;33.50;31.25;;;;;15.42;45.91;101842.22;2085704;28;48150;-61
2022/04/28 01:49:21;;;;;;;;;35.60;31.80;;;;;15.39;45.85;101834.28;2078848;28;47714;-60
2022/04/28 01:50:21;;;;;;;;;33.50;29.75;;;;;15.39;45.72;101836.97;2084719;28;47072;-61
2022/04/28 01:55:21;;;;;;;;;30.80;29.80;;;;;15.35;46.15;101845.94;2090597;28;48304;-59
2022/04/28 01:56:21;;;;;;;;;40.40;33.60;;;;;15.35;45.91;101845.94;2083762;28;47891;-60
2022/04/28 01:57:22;;;;;;;;;33.00;30.00;;;;;15.35;45.98;101850.44;2093175;28;47806;-60
2022/04/28 01:58:23;;;;;;;;;36.00;31.00;;;;;15.32;45.65;101846.03;2086716;28;47529;-62
2022/04/28 01:59:23;;;;;;;;;36.50;32.50;;;;;15.30;46.06;101838.03;2080898;28;47659;-60
2022/04/28 02:00:24;;;;;;;;;34.75;32.00;;;;;15.30;45.89;101847.88;2087333;28;47074;-60
2022/04/28 02:01:25;;;;;;;;;34.75;30.50;;;;;15.29;45.71;101846.13;2086757;28;45708;-59
2022/04/28 02:02:27;;;;;;;;;39.75;33.75;;;;;15.27;46.09;101843.47;2085736;28;47791;-61
2022/04/28 02:03:28;;;;;;;;;36.20;31.60;;;;;15.27;46.08;101846.16;2083795;28;48162;-61
2022/04/28 02:04:28;;;;;;;;;35.50;32.00;;;;;15.26;45.82;101843.53;2093909;28;47631;-61
2022/04/28 02:05:29;;;;;;;;;42.25;35.25;;;;;15.24;46.15;101846.19;2093530;28;47012;-61
2022/04/28 02:06:30;;;;;;;;;37.00;33.25;;;;;15.22;45.81;101850.72;2086788;28;47880;-61
2022/04/28 02:07:31;;;;;;;;;33.40;29.80;;;;;15.22;46.01;101848.03;2088399;28;45225;-61
2022/04/28 02:08:32;;;;;;;;;37.00;33.40;;;;;15.21;46.15;101845.41;2086963;28;47352;-61
2022/04/28 02:09:33;;;;;;;;;37.75;32.50;;;;;15.20;45.88;101847.19;2094086;28;48039;-61
2022/04/28 02:10:33;;;;;;;;;38.25;33.50;;;;;15.20;46.49;101846.31;2083029;28;47635;-61
2022/04/28 02:11:34;;;;;;;;;37.00;32.75;;;;;15.18;46.00;101846.34;2086691;28;48204;-61
2022/04/28 02:12:35;;;;;;;;;34.00;32.00;;;;;15.18;45.85;101842.81;2086981;28;47819;-61
2022/04/28 02:13:35;;;;;;;;;36.25;31.50;;;;;15.16;46.11;101841.97;2092248;28;47601;-61
2022/04/28 02:14:37;;;;;;;;;32.25;30.00;;;;;15.14;46.25;101847.34;2087347;28;47925;-61
2022/04/28 02:15:37;;;;;;;;;28.40;28.20;;;;;15.11;45.98;101842.03;2088485;28;48130;-60
2022/04/28 02:16:38;;;;;;;;;39.25;33.00;;;;;15.12;46.21;101850.94;2086116;28;47548;-60
2022/04/28 02:17:40;;;;;;;;;35.00;32.00;;;;;15.09;46.24;101843.88;2088707;28;47671;-62
2022/04/28 02:18:40;;;;;;;;;35.60;31.80;;;;;15.09;46.14;101848.34;2096017;28;47311;-61
2022/04/28 02:19:41;;;;;;;;;31.00;28.25;;;;;15.08;46.48;101844.78;2089776;28;48128;-60
2022/04/28 02:20:42;;;;;;;;;36.25;32.00;;;;;15.06;46.47;101845.75;2087671;28;47819;-61
2022/04/28 02:21:42;;;;;;;;;32.50;30.75;;;;;15.05;46.37;101844.00;2086689;28;47951;-61
2022/04/28 02:22:43;;;;;;;;;33.00;31.00;;;;;15.04;46.37;101839.56;2088173;28;48023;-61
2022/04/28 02:23:44;;;;;;;;;36.00;31.75;;;;;15.00;46.25;101844.97;2091669;27;48040;-60
2022/04/28 02:24:45;;;;;;;;;37.25;32.50;;;;;14.98;46.38;101845.91;2088128;28;47339;-61
2022/04/28 02:25:46;;;;;;;;;34.00;30.20;;;;;14.97;46.74;101839.69;2087119;28;48020;-61
2022/04/28 02:26:47;;;;;;;;;33.75;31.00;;;;;14.96;46.22;101843.28;2092939;28;47503;-61
2022/04/28 02:27:48;;;;;;;;;33.25;30.50;;;;;14.94;46.59;101838.88;2073950;28;47340;-61
2022/04/28 02:28:48;;;;;;;;;34.25;31.25;;;;;14.93;46.69;101842.47;2074460;28;47488;-60
2022/04/28 02:29:49;;;;;;;;;38.50;32.50;;;;;14.91;46.36;101842.50;2084793;28;48162;-61
2022/04/28 02:30:49;;;;;;;;;33.25;29.75;;;;;14.91;46.69;101847.84;2086737;28;47989;-60
2022/04/28 02:31:50;;;;;;;;;31.50;29.25;;;;;14.89;46.71;101847.00;2085584;28;47047;-63
2022/04/28 02:33:09;;;;;;;;;40.00;33.00;;;;;14.87;46.30;101843.50;2092340;28;47643;-63
2022/04/28 02:34:10;;;;;;;;;29.00;28.60;;;;;14.85;46.67;101844.41;2089273;28;47768;-60
2022/04/28 02:35:11;;;;;;;;;35.60;32.20;;;;;14.84;46.61;101842.66;2083078;28;48125;-60
2022/04/28 02:36:13;;;;;;;;;39.50;32.00;;;;;14.81;46.85;101843.59;2092609;28;47563;-61
2022/04/28 02:37:14;;;;;;;;;37.80;33.60;;;;;14.78;46.52;101842.81;2089883;28;47717;-62
2022/04/28 02:38:14;;;;;;;;;35.00;31.75;;;;;14.77;46.53;101849.06;2094757;28;47856;-60
2022/04/28 02:39:17;;;;;;;;;30.50;29.25;;;;;14.75;47.07;101845.53;2087525;28;47910;-61
2022/04/28 02:40:18;;;;;;;;;32.00;29.20;;;;;14.72;46.76;101849.13;2087770;28;47796;-65
2022/04/28 02:41:21;;;;;;;;;29.75;28.50;;;;;14.69;47.11;101844.75;2088321;28;46199;-61
2022/04/28 02:42:22;;;;;;;;;32.40;30.00;;;;;14.67;46.84;101841.22;2083684;28;48434;-61
2022/04/28 02:43:23;;;;;;;;;37.00;30.75;;;;;14.66;46.93;101841.25;2078512;28;47500;-61
2022/04/28 02:44:24;;;;;;;;;30.25;29.25;;;;;14.64;46.99;101851.97;2086924;28;47007;-63
2022/04/28 02:45:25;;;;;;;;;33.40;30.60;;;;;14.63;47.29;101860.03;2095971;28;47476;-61
2022/04/28 02:46:27;;;;;;;;;35.20;32.40;;;;;14.60;47.03;101854.72;2087221;28;47259;-61
2022/04/28 02:47:27;;;;;;;;;34.00;32.00;;;;;14.58;47.12;101859.22;2087441;28;47009;-61
2022/04/28 02:48:28;;;;;;;;;36.25;31.75;;;;;14.58;47.13;101864.56;2088116;28;47473;-61
2022/04/28 02:49:29;;;;;;;;;32.25;30.50;;;;;14.58;46.95;101859.22;2088199;28;47515;-61
2022/04/28 02:50:29;;;;;;;;;33.50;30.50;;;;;14.56;47.12;101858.38;2088012;28;48167;-61
2022/04/28 02:51:30;;;;;;;;;34.25;30.75;;;;;14.56;47.14;101861.06;2087856;28;47477;-61
2022/04/28 02:52:31;;;;;;;;;30.60;29.00;;;;;14.54;47.37;101861.09;2082765;28;48147;-60
2022/04/28 02:53:33;;;;;;;;;30.50;29.50;;;;;14.54;47.16;101860.22;2084688;28;47796;-60
2022/04/28 02:54:33;;;;;;;;;32.80;28.80;;;;;14.52;47.28;101862.03;2078229;28;47728;-61
2022/04/28 02:55:34;;;;;;;;;30.25;29.00;;;;;14.51;47.21;101855.81;2078518;28;47334;-60
2022/04/28 02:56:35;;;;;;;;;33.25;31.00;;;;;14.51;47.24;101855.81;2088022;28;47171;-61
2022/04/28 02:57:37;;;;;;;;;28.00;25.20;;;;;14.52;47.40;101856.69;2087889;28;48381;-61
2022/04/28 02:58:37;;;;;;;;;31.20;30.20;;;;;14.51;47.64;101852.25;2087750;28;47765;-61
2022/04/28 02:59:38;;;;;;;;;33.50;30.75;;;;;14.49;47.27;101854.97;2087902;28;46945;-60
2022/04/28 03:00:39;;;;;;;;;28.75;28.75;;;;;14.47;47.38;101856.75;2102622;28;47731;-61
2022/04/28 03:01:39;;;;;;;;;32.25;30.00;;;;;14.47;47.33;101864.78;2101815;28;47594;-61
2022/04/28 03:02:40;;;;;;;;;28.75;28.75;;;;;14.46;47.31;101862.13;2087764;28;45912;-61
2022/04/28 03:03:41;;;;;;;;;33.20;29.00;;;;;14.44;47.61;101862.16;2087775;28;47535;-62
2022/04/28 03:04:42;;;;;;;;;33.50;30.75;;;;;14.44;47.73;101859.50;2095086;28;47616;-62
2022/04/28 03:10:59;;;;;;;;;33.40;31.00;;;;;14.39;47.51;101874.72;2088168;28;47284;-61
2022/04/28 03:12:00;;;;;;;;;29.50;27.50;;;;;14.37;47.78;101869.41;2087833;28;45419;-60
2022/04/28 03:13:01;;;;;;;;;35.00;29.50;;;;;14.35;47.66;101868.53;2080468;28;47839;-62
2022/04/28 03:14:02;;;;;;;;;32.50;30.00;;;;;14.37;47.53;101868.53;2078533;28;46967;-61
2022/04/28 03:15:06;;;;;;;;;32.00;30.00;;;;;14.36;47.55;101867.66;2086971;28;48752;-61
2022/04/28 03:16:07;;;;;;;;;32.40;29.60;;;;;14.35;47.81;101868.53;2087797;28;47187;-61
2022/04/28 03:17:08;;;;;;;;;31.25;28.75;;;;;14.35;47.83;101873.00;2086316;28;47992;-61
2022/04/28 03:18:08;;;;;;;;;33.00;28.50;;;;;14.35;47.51;101873.00;2087916;28;48202;-61
2022/04/28 03:19:09;;;;;;;;;32.00;29.75;;;;;14.34;47.40;101868.56;2087827;28;47837;-60
2022/04/28 03:20:10;;;;;;;;;29.25;26.50;;;;;14.33;47.71;101875.69;2087699;28;45766;-61
2022/04/28 03:21:13;;;;;;;;;30.00;28.20;;;;;14.32;47.57;101868.59;2086551;28;47758;-60
2022/04/28 03:22:13;;;;;;;;;30.80;29.80;;;;;14.31;47.92;101876.63;2086625;28;47851;-60
2022/04/28 03:23:14;;;;;;;;;28.25;28.25;;;;;14.29;47.87;101870.44;2085047;28;47483;-62
2022/04/28 03:24:15;;;;;;;;;33.60;30.00;;;;;14.28;47.56;101874.03;2080026;28;47227;-60
2022/04/28 03:25:16;;;;;;;;;30.00;28.00;;;;;14.26;47.57;101871.38;2087799;28;47748;-61
2022/04/28 03:26:16;;;;;;;;;33.00;30.00;;;;;14.24;47.97;101875.88;2086625;28;45886;-61
2022/04/28 03:27:17;;;;;;;;;33.25;30.00;;;;;14.24;48.04;101877.69;2086903;28;47579;-60
2022/04/28 03:28:21;;;;;;;;;32.50;30.00;;;;;14.22;47.97;101872.34;2087786;28;47611;-61
2022/04/28 03:29:22;;;;;;;;;30.20;28.40;;;;;14.22;47.94;101875.00;2087674;28;48278;-60
2022/04/28 03:30:23;;;;;;;;;30.50;30.00;;;;;14.21;48.06;101875.03;2086302;28;47401;-59
2022/04/28 03:31:24;;;;;;;;;29.25;28.00;;;;;14.22;48.38;101867.00;2086711;28;47510;-60
2022/04/28 03:32:25;;;;;;;;;28.00;26.80;;;;;14.23;47.89;101862.53;2087794;28;47654;-59
2022/04/28 03:33:25;;;;;;;;;30.50;29.00;;;;;14.24;48.19;101867.88;2087981;28;47828;-60
2022/04/28 03:34:26;;;;;;;;;29.25;27.00;;;;;14.25;48.35;101868.75;2087748;28;47160;-60
2022/04/28 03:35:27;;;;;;;;;29.50;25.50;;;;;14.25;47.80;101872.31;2087862;28;45806;-61
2022/04/28 03:37:47;;;;;;;;;32.60;28.00;;;;;14.28;48.23;101864.22;2087652;28;48254;-60
2022/04/28 03:38:48;;;;;;;;;29.50;27.50;;;;;14.30;47.96;101867.75;2087601;28;45235;-59
2022/04/28 03:39:49;;;;;;;;;33.00;29.75;;;;;14.30;48.19;101867.75;2087617;28;47591;-61
2022/04/28 03:40:50;;;;;;;;;27.50;27.50;;;;;14.31;48.15;101877.50;2087711;28;47679;-60
2022/04/28 03:41:50;;;;;;;;;32.25;29.75;;;;;14.32;48.23;101881.94;2099856;28;47849;-60
2022/04/28 03:42:51;;;;;;;;;28.00;25.75;;;;;14.32;47.98;101873.06;2098909;28;47858;-60
2022/04/28 03:43:52;;;;;;;;;32.75;30.25;;;;;14.33;47.86;101869.47;2090288;28;47625;-58
2022/04/28 03:44:52;;;;;;;;;31.50;29.00;;;;;14.33;48.03;101869.47;2090721;28;47784;-60
2022/04/28 03:45:53;;;;;;;;;30.75;29.25;;;;;14.33;47.98;101870.34;2093335;28;48059;-60
2022/04/28 03:46:54;;;;;;;;;33.25;31.25;;;;;14.33;48.13;101875.69;2087524;28;47554;-60
2022/04/28 03:47:56;;;;;;;;;36.00;31.75;;;;;14.33;48.23;101870.34;2088845;28;47459;-59
2022/04/28 03:48:56;;;;;;;;;34.00;31.00;;;;;14.33;48.28;101874.81;2093685;28;47729;-59
2022/04/28 03:49:57;;;;;;;;;34.50;31.50;;;;;14.32;48.10;101873.94;2089901;28;45748;-60
2022/04/28 03:50:58;;;;;;;;;30.75;29.50;;;;;14.34;47.97;101881.91;2080900;28;48054;-59
2022/04/28 03:51:58;;;;;;;;;29.50;29.00;;;;;14.33;47.98;101870.34;2086647;28;48055;-59
2022/04/28 03:53:00;;;;;;;;;33.50;30.00;;;;;14.33;48.04;101870.34;2081957;28;48198;-60
2022/04/28 03:54:01;;;;;;;;;32.80;30.40;;;;;14.35;47.89;101881.00;2082293;28;47766;-59
2022/04/28 03:55:02;;;;;;;;;32.60;29.20;;;;;14.34;47.87;101866.78;2087065;28;47269;-58
2022/04/28 03:56:03;;;;;;;;;31.00;28.80;;;;;14.35;48.09;101873.88;2100491;28;45748;-61
2022/04/28 03:57:04;;;;;;;;;33.00;29.40;;;;;14.36;47.93;101874.78;2103718;27;47198;-61
2022/04/28 03:58:05;;;;;;;;;35.00;31.60;;;;;14.35;48.18;101873.88;2092140;28;47293;-61
2022/04/28 03:59:06;;;;;;;;;28.75;28.25;;;;;14.36;48.20;101874.78;2091694;28;45796;-58
2022/04/28 04:00:07;;;;;;;;;31.75;29.75;;;;;14.36;47.86;101877.44;2096286;28;47765;-60
2022/04/28 04:01:08;;;;;;;;;29.00;27.80;;;;;14.37;48.15;101871.19;2092527;28;48240;-59
2022/04/28 04:02:10;;;;;;;;;28.50;27.75;;;;;14.36;48.20;101866.78;2093353;28;47693;-59
2022/04/28 04:03:11;;;;;;;;;30.00;30.00;;;;;14.36;48.45;101877.44;2095581;28;48018;-59
2022/04/28 04:04:12;;;;;;;;;34.00;32.20;;;;;14.37;48.23;101877.41;2090958;28;47931;-60
2022/04/28 04:05:13;;;;;;;;;33.40;29.60;;;;;14.36;47.86;101869.44;2068298;28;48296;-61
2022/04/28 04:06:13;;;;;;;;;32.00;26.75;;;;;14.36;47.92;101880.13;2076448;28;47613;-61
2022/04/28 04:07:14;;;;;;;;;34.50;32.00;;;;;14.34;48.37;101880.13;2092387;28;47863;-61
2022/04/28 04:08:15;;;;;;;;;35.75;31.75;;;;;14.34;48.16;101873.91;2092281;28;47792;-60
2022/04/28 04:09:16;;;;;;;;;31.80;29.40;;;;;14.33;48.00;101878.34;2092584;28;48286;-59
2022/04/28 04:10:17;;;;;;;;;31.25;29.25;;;;;14.34;48.35;101874.78;2092433;28;47452;-59
2022/04/28 04:11:18;;;;;;;;;31.25;28.75;;;;;14.33;48.19;101875.69;2096001;28;45953;-60
2022/04/28 04:12:18;;;;;;;;;33.75;31.75;;;;;14.31;48.31;101874.84;2091390;28;46988;-61
2022/04/28 04:13:19;;;;;;;;;29.50;28.25;;;;;14.30;48.08;101881.09;2087577;28;47575;-60
2022/04/28 04:14:20;;;;;;;;;30.00;27.75;;;;;14.30;48.19;101882.88;2089146;28;47020;-60
2022/04/28 04:15:20;;;;;;;;;38.25;31.25;;;;;14.28;48.32;101877.59;2086626;28;47693;-60
2022/04/28 04:16:21;;;;;;;;;30.75;28.25;;;;;14.27;48.09;101878.50;2086375;28;47971;-61
2022/04/28 04:17:22;;;;;;;;;30.25;29.00;;;;;14.26;48.16;101889.19;2090531;28;48056;-60
2022/04/28 04:18:22;;;;;;;;;35.00;31.50;;;;;14.25;48.42;101880.31;2088117;28;47284;-60
2022/04/28 04:19:23;;;;;;;;;31.75;29.75;;;;;14.24;48.49;101886.56;2089564;28;47865;-60
2022/04/28 04:20:25;;;;;;;;;33.50;30.75;;;;;14.24;48.23;101878.56;2088885;28;48131;-60
2022/04/28 04:21:25;;;;;;;;;34.00;32.00;;;;;14.24;48.18;101897.25;2086310;28;47163;-60
2022/04/28 04:22:26;;;;;;;;;30.75;29.50;;;;;14.23;48.41;101887.47;2090304;28;47654;-62
2022/04/28 04:23:27;;;;;;;;;30.75;30.00;;;;;14.25;48.43;101895.44;2088411;28;47653;-60
2022/04/28 04:24:27;;;;;;;;;29.50;27.50;;;;;14.25;48.58;101882.97;2086489;28;47989;-59
2022/04/28 04:25:28;;;;;;;;;32.75;31.75;;;;;14.26;48.28;101881.19;2090379;28;47760;-59
2022/04/28 04:26:29;;;;;;;;;33.00;31.00;;;;;14.27;48.63;101893.63;2086485;28;47154;-59
2022/04/28 04:27:29;;;;;;;;;32.75;31.25;;;;;14.27;48.66;101897.19;2082090;28;47439;-60
2022/04/28 04:28:30;;;;;;;;;33.00;30.00;;;;;14.26;48.35;101895.44;2089464;28;47071;-59
2022/04/28 04:29:31;;;;;;;;;27.25;26.75;;;;;14.26;48.51;101895.44;2087097;28;47309;-60
2022/04/28 04:33:11;;;;;;;;;34.60;30.20;;;;;14.26;48.33;101895.44;2090181;28;46058;-59
2022/04/28 04:34:11;;;;;;;;;30.60;29.00;;;;;14.27;48.19;101898.97;2080077;28;47134;-59
2022/04/28 04:35:12;;;;;;;;;37.25;32.75;;;;;14.28;48.22;101898.94;2089028;28;47795;-59
2022/04/28 04:36:13;;;;;;;;;27.75;27.25;;;;;14.28;48.20;101901.59;2086757;28;48113;-58
2022/04/28 04:37:14;;;;;;;;;33.50;31.00;;;;;14.28;48.41;101896.28;2086468;28;46414;-60
2022/04/28 04:38:14;;;;;;;;;35.25;30.00;;;;;14.29;48.54;101895.34;2094323;28;48246;-60
2022/04/28 04:39:15;;;;;;;;;34.50;29.25;;;;;14.30;48.48;101897.13;2096561;28;46654;-59
2022/04/28 04:40:16;;;;;;;;;34.25;31.00;;;;;14.31;48.46;101900.66;2092596;28;48110;-61
2022/04/28 04:41:16;;;;;;;;;31.00;30.00;;;;;14.31;48.33;101908.69;2090725;28;48359;-60
2022/04/28 04:42:17;;;;;;;;;31.75;30.00;;;;;14.29;48.57;101907.81;2091165;28;47874;-60
2022/04/28 04:43:18;;;;;;;;;31.50;29.50;;;;;14.29;48.28;101907.81;2097236;28;47921;-59
2022/04/28 04:44:18;;;;;;;;;30.25;30.00;;;;;14.28;48.46;101908.75;2087441;28;47131;-59
2022/04/28 04:45:19;;;;;;;;;30.50;28.50;;;;;14.28;48.37;101906.94;2094988;28;47649;-60
2022/04/28 04:46:20;;;;;;;;;31.50;30.00;;;;;14.27;48.70;101905.19;2090986;28;47943;-59
2022/04/28 04:47:20;;;;;;;;;34.25;30.50;;;;;14.28;48.65;101906.06;2090047;28;47413;-61
2022/04/28 04:48:22;;;;;;;;;39.00;32.00;;;;;14.28;48.31;101903.41;2096712;28;48076;-60
2022/04/28 04:49:23;;;;;;;;;35.80;32.00;;;;;14.27;48.30;101905.19;2090245;28;47317;-60
2022/04/28 04:50:24;;;;;;;;;37.50;31.50;;;;;14.27;48.17;101905.19;2092352;28;47993;-60
2022/04/28 04:51:24;;;;;;;;;31.25;29.75;;;;;14.28;48.32;101911.41;2096473;28;47750;-61
2022/04/28 04:52:25;;;;;;;;;38.75;33.25;;;;;14.26;48.52;101910.56;2094809;28;47686;-59
2022/04/28 04:53:25;;;;;;;;;36.75;32.50;;;;;14.25;48.30;101908.81;2094592;28;47563;-62